createdAt,value
2022-09-21T00:00:51.791Z,100.00
2022-09-21T00:03:18.611Z,100.00
2022-09-21T00:05:45.430Z,100.00
2022-09-21T00:08:14.116Z,100.00
2022-09-21T00:10:40.986Z,100.00
2022-09-21T00:13:08.870Z,100.00
2022-09-21T00:15:35.348Z,100.00
2022-09-21T00:18:01.879Z,100.00
2022-09-21T00:20:29.024Z,100.00
2022-09-21T00:22:55.448Z,100.00
2022-09-21T00:25:21.901Z,100.00
2022-09-21T00:27:50.181Z,100.00
2022-09-21T00:30:16.828Z,100.00
2022-09-21T00:32:43.411Z,100.00
2022-09-21T00:35:09.824Z,100.00
2022-09-21T00:37:36.723Z,100.00
2022-09-21T00:40:04.081Z,100.00
2022-09-21T00:42:33.678Z,100.00
2022-09-21T00:45:00.937Z,100.00
2022-09-21T00:47:37.144Z,100.00
2022-09-21T00:50:09.561Z,100.00
2022-09-21T00:52:43.883Z,100.00
2022-09-21T00:55:24.980Z,100.00
2022-09-21T00:57:58.434Z,100.00
2022-09-21T01:00:25.041Z,100.00
2022-09-21T01:02:51.785Z,100.00
2022-09-21T01:05:18.425Z,100.00
2022-09-21T01:07:48.274Z,100.00
2022-09-21T01:10:18.600Z,100.00
2022-09-21T01:13:18.871Z,100.00
2022-09-21T01:16:07.520Z,100.00
2022-09-21T01:18:37.309Z,100.00
2022-09-21T01:21:17.108Z,100.00
2022-09-21T01:24:11.517Z,100.00
2022-09-21T01:27:26.150Z,100.00
2022-09-21T01:29:59.161Z,100.00
2022-09-21T01:32:37.164Z,100.00
2022-09-21T01:35:18.669Z,100.00
2022-09-21T01:37:50.829Z,100.00
2022-09-21T01:40:38.119Z,100.00
2022-09-21T01:43:06.999Z,100.00
2022-09-21T01:45:43.339Z,100.00
2022-09-21T01:48:12.108Z,100.00
2022-09-21T01:50:44.747Z,100.00
2022-09-21T01:53:21.529Z,100.00
2022-09-21T01:56:04.756Z,100.00
2022-09-21T01:58:39.603Z,100.00
2022-09-21T02:01:11.953Z,100.00
2022-09-21T02:03:58.059Z,100.00
2022-09-21T02:06:30.055Z,100.00
2022-09-21T02:08:56.515Z,100.00
2022-09-21T02:11:23.037Z,100.00
2022-09-21T02:13:53.159Z,100.00
2022-09-21T02:16:34.453Z,100.00
2022-09-21T02:19:22.291Z,100.00
2022-09-21T02:22:10.137Z,100.00
2022-09-21T02:24:48.462Z,100.00
2022-09-21T02:27:45.810Z,100.00
2022-09-21T02:30:18.358Z,100.00
2022-09-21T02:33:03.905Z,100.00
2022-09-21T02:35:45.556Z,100.00
2022-09-21T02:38:26.516Z,100.00
2022-09-21T02:40:55.156Z,100.00
2022-09-21T02:43:27.863Z,100.00
2022-09-21T02:46:04.267Z,100.00
2022-09-21T02:48:53.835Z,100.00
2022-09-21T02:51:31.562Z,100.00
2022-09-21T02:54:01.232Z,100.00
2022-09-21T02:56:30.635Z,100.00
2022-09-21T02:59:01.322Z,100.00
2022-09-21T03:01:29.523Z,100.00
2022-09-21T03:03:56.236Z,100.00
2022-09-21T03:06:23.223Z,100.00
2022-09-21T03:08:50.071Z,100.00
2022-09-21T03:11:20.988Z,100.00
2022-09-21T03:13:47.749Z,100.00
2022-09-21T03:16:14.312Z,100.00
2022-09-21T03:18:43.410Z,100.00
2022-09-21T03:21:13.415Z,100.00
2022-09-21T03:23:40.661Z,100.00
2022-09-21T03:26:07.344Z,100.00
2022-09-21T03:28:34.154Z,100.00
2022-09-21T03:31:01.264Z,100.00
2022-09-21T03:33:28.226Z,100.00
2022-09-21T03:35:54.707Z,100.00
2022-09-21T03:38:21.680Z,100.00
2022-09-21T03:40:49.727Z,100.00
2022-09-21T03:43:17.499Z,100.00
2022-09-21T03:45:44.667Z,100.00
2022-09-21T03:48:12.665Z,100.00
2022-09-21T03:50:39.127Z,100.00
2022-09-21T03:53:05.849Z,100.00
2022-09-21T03:55:33.483Z,100.00
2022-09-21T03:58:00.113Z,100.00
2022-09-21T04:00:27.291Z,100.00
2022-09-21T04:02:53.972Z,100.00
2022-09-21T04:05:20.866Z,100.00
2022-09-21T04:07:47.664Z,100.00
2022-09-21T04:10:17.864Z,100.00
2022-09-21T04:12:45.298Z,100.00
2022-09-21T04:15:14.322Z,100.00
2022-09-21T04:17:41.099Z,100.00
2022-09-21T04:20:09.068Z,100.00
2022-09-21T04:22:41.128Z,100.00
2022-09-21T04:25:10.616Z,100.00
2022-09-21T04:27:37.490Z,100.00
2022-09-21T04:30:05.039Z,100.00
2022-09-21T04:32:31.636Z,100.00
2022-09-21T04:34:58.288Z,100.00
2022-09-21T04:37:24.993Z,100.00
2022-09-21T04:39:51.922Z,100.00
2022-09-21T04:42:18.925Z,100.00
2022-09-21T04:44:45.369Z,100.00
2022-09-21T04:47:11.929Z,100.00
2022-09-21T04:49:38.637Z,100.00
2022-09-21T04:52:05.995Z,100.00
2022-09-21T04:54:32.541Z,100.00
2022-09-21T04:56:58.986Z,100.00
2022-09-21T04:59:25.620Z,100.00
2022-09-21T05:01:52.056Z,100.00
2022-09-21T05:04:18.518Z,100.00
2022-09-21T05:06:45.014Z,100.00
2022-09-21T05:09:30.044Z,100.00
2022-09-21T05:11:56.520Z,100.00
2022-09-21T05:14:23.280Z,100.00
2022-09-21T05:16:49.749Z,100.00
2022-09-21T05:19:17.185Z,100.00
2022-09-21T05:21:43.796Z,100.00
2022-09-21T05:24:10.320Z,100.00
2022-09-21T05:26:36.730Z,100.00
2022-09-21T05:29:03.699Z,100.00
2022-09-21T05:31:43.620Z,100.00
2022-09-21T05:34:30.173Z,100.00
2022-09-21T05:37:37.687Z,100.00
2022-09-21T05:40:05.582Z,100.00
2022-09-21T05:42:32.614Z,100.00
2022-09-21T05:44:59.440Z,100.00
2022-09-21T05:47:59.850Z,100.00
2022-09-21T05:50:48.219Z,100.00
2022-09-21T05:53:39.268Z,100.00
2022-09-21T05:56:47.544Z,100.00
2022-09-21T05:59:45.059Z,100.00
2022-09-21T06:02:41.087Z,100.00
2022-09-21T06:05:12.741Z,100.00
2022-09-21T06:07:39.196Z,100.00
2022-09-21T06:10:06.283Z,100.00
2022-09-21T06:12:32.927Z,100.00
2022-09-21T06:14:59.425Z,100.00
2022-09-21T06:17:27.415Z,100.00
2022-09-21T06:19:54.227Z,100.00
2022-09-21T06:22:21.433Z,100.00
2022-09-21T06:24:47.897Z,100.00
2022-09-21T06:27:14.685Z,100.00
2022-09-21T06:29:41.122Z,100.00
2022-09-21T06:32:08.174Z,100.00
2022-09-21T06:34:34.594Z,94.17
2022-09-21T06:37:01.064Z,86.02
2022-09-21T06:39:27.482Z,77.62
2022-09-21T06:41:53.965Z,72.69
2022-09-21T06:44:20.633Z,68.41
2022-09-21T06:46:47.291Z,65.54
2022-09-21T06:49:14.045Z,63.57
2022-09-21T06:51:40.696Z,60.72
2022-09-21T06:54:07.453Z,59.65
2022-09-21T06:56:34.113Z,59.87
2022-09-21T06:59:00.610Z,61.86
2022-09-21T07:01:27.744Z,59.04
2022-09-21T07:03:54.331Z,58.00
2022-09-21T07:06:21.481Z,56.46
2022-09-21T07:11:35.016Z,57.72
2022-09-21T07:14:01.507Z,55.45
2022-09-21T07:16:28.052Z,55.79
2022-09-21T07:18:54.664Z,53.96
2022-09-21T07:21:22.118Z,53.84
2022-09-21T07:23:48.867Z,52.99
2022-09-21T07:26:15.711Z,56.14
2022-09-21T07:28:45.244Z,53.00
2022-09-21T07:31:15.287Z,51.95
2022-09-21T07:33:43.013Z,51.32
2022-09-21T07:36:10.732Z,53.94
2022-09-21T07:38:42.126Z,53.33
2022-09-21T07:41:10.552Z,55.43
2022-09-21T07:43:39.436Z,58.43
2022-09-21T07:46:14.481Z,59.54
2022-09-21T07:48:41.588Z,57.08
2022-09-21T07:51:11.294Z,58.15
2022-09-21T07:53:39.716Z,57.53
2022-09-21T07:56:13.828Z,56.09
2022-09-21T07:58:59.920Z,57.61
2022-09-21T08:01:27.926Z,56.67
2022-09-21T08:03:57.339Z,59.74
2022-09-21T08:06:26.917Z,56.66
2022-09-21T08:08:57.485Z,55.30
2022-09-21T08:11:26.385Z,54.35
2022-09-21T08:13:54.530Z,54.41
2022-09-21T08:16:21.312Z,55.60
2022-09-21T08:18:47.968Z,55.63
2022-09-21T08:21:14.499Z,56.28
2022-09-21T08:23:42.642Z,57.92
2022-09-21T08:26:13.413Z,57.92
2022-09-21T08:28:40.292Z,58.78
2022-09-21T08:31:11.305Z,57.43
2022-09-21T08:33:37.765Z,57.41
2022-09-21T08:36:04.887Z,56.92
2022-09-21T08:38:36.852Z,56.26
2022-09-21T08:41:31.317Z,57.22
2022-09-21T08:44:11.759Z,60.34
2022-09-21T08:46:39.868Z,56.10
2022-09-21T08:49:23.029Z,60.50
2022-09-21T08:52:17.080Z,66.41
2022-09-21T08:54:54.794Z,68.13
2022-09-21T08:57:25.468Z,62.28
2022-09-21T08:59:51.986Z,57.18
2022-09-21T09:02:37.767Z,59.30
2022-09-21T09:05:45.858Z,59.96
2022-09-21T09:08:33.028Z,65.70
2022-09-21T09:11:24.975Z,68.43
2022-09-21T09:14:10.144Z,72.52
2022-09-21T09:16:58.393Z,75.32
2022-09-21T09:19:40.469Z,76.70
2022-09-21T09:22:10.937Z,75.04
2022-09-21T09:24:52.025Z,72.52
2022-09-21T09:27:41.329Z,68.07
2022-09-21T09:30:13.734Z,68.29
2022-09-21T09:33:01.705Z,67.38
2022-09-21T09:35:36.380Z,70.96
2022-09-21T09:38:17.996Z,71.42
2022-09-21T09:41:05.720Z,73.05
2022-09-21T09:44:17.078Z,72.48
2022-09-21T09:47:08.281Z,71.97
2022-09-21T09:49:46.811Z,70.13
2022-09-21T09:52:16.624Z,70.19
2022-09-21T09:54:44.215Z,69.57
2022-09-21T09:57:11.997Z,66.00
2022-09-21T09:59:54.234Z,62.07
2022-09-21T10:02:29.525Z,60.19
2022-09-21T10:05:06.271Z,60.25
2022-09-21T10:07:46.166Z,62.74
2022-09-21T10:10:21.860Z,63.06
2022-09-21T10:12:49.857Z,65.05
2022-09-21T10:15:23.457Z,64.67
2022-09-21T10:18:03.138Z,69.56
2022-09-21T10:20:30.991Z,78.94
2022-09-21T10:23:01.203Z,83.24
2022-09-21T10:25:27.776Z,85.21
2022-09-21T10:27:56.060Z,85.75
2022-09-21T10:30:35.471Z,85.81
2022-09-21T10:33:02.024Z,86.49
2022-09-21T10:35:28.543Z,85.18
2022-09-21T10:38:22.449Z,86.03
2022-09-21T10:40:50.491Z,85.06
2022-09-21T10:43:24.542Z,83.69
2022-09-21T10:45:56.944Z,81.38
2022-09-21T10:48:25.960Z,82.42
2022-09-21T10:50:54.799Z,82.76
2022-09-21T10:53:28.370Z,80.68
2022-09-21T10:56:21.707Z,76.39
2022-09-21T10:59:12.963Z,76.63
2022-09-21T11:01:48.687Z,71.16
2022-09-21T11:04:30.964Z,67.05
2022-09-21T11:07:04.832Z,65.38
2022-09-21T11:09:53.378Z,67.69
2022-09-21T11:12:43.954Z,67.01
2022-09-21T11:15:37.794Z,69.14
2022-09-21T11:18:12.708Z,67.84
2022-09-21T11:20:49.074Z,69.87
2022-09-21T11:23:33.888Z,66.31
2022-09-21T11:26:06.536Z,65.77
2022-09-21T11:28:42.274Z,67.08
2022-09-21T11:31:29.803Z,67.76
2022-09-21T11:34:27.173Z,66.27
2022-09-21T11:37:02.777Z,64.90
2022-09-21T11:39:54.040Z,64.01
2022-09-21T11:42:33.612Z,62.90
2022-09-21T11:45:02.909Z,63.79
2022-09-21T11:47:48.436Z,62.98
2022-09-21T11:50:44.914Z,63.18
2022-09-21T11:53:42.228Z,64.40
2022-09-21T11:56:36.597Z,63.31
2022-09-21T11:59:32.966Z,62.52
2022-09-21T12:02:30.161Z,61.58
2022-09-21T12:05:06.184Z,61.53
2022-09-21T12:08:22.773Z,62.24
2022-09-21T12:11:00.520Z,63.25
2022-09-21T12:13:51.821Z,58.61
2022-09-21T12:16:38.436Z,58.63
2022-09-21T12:19:27.685Z,58.26
2022-09-21T12:22:06.520Z,57.26
2022-09-21T12:24:40.071Z,56.29
2022-09-21T12:27:40.401Z,55.28
2022-09-21T12:30:17.937Z,53.98
2022-09-21T12:33:07.259Z,53.68
2022-09-21T12:38:36.519Z,54.76
2022-09-21T12:41:16.977Z,56.53
2022-09-21T12:44:00.873Z,53.35
2022-09-21T12:46:47.812Z,52.00
2022-09-21T12:49:24.020Z,52.89
2022-09-21T12:51:55.483Z,50.45
2022-09-21T12:54:50.521Z,53.17
2022-09-21T12:57:45.646Z,56.10
2022-09-21T13:00:20.362Z,56.71
2022-09-21T13:02:54.883Z,55.33
2022-09-21T13:05:27.485Z,55.62
2022-09-21T13:08:16.441Z,56.96
2022-09-21T13:10:57.923Z,58.00
2022-09-21T13:13:44.404Z,58.42
2022-09-21T13:16:28.887Z,59.68
2022-09-21T13:19:04.784Z,59.57
2022-09-21T13:21:33.434Z,58.29
2022-09-21T13:24:05.303Z,57.40
2022-09-21T13:26:35.459Z,57.39
2022-09-21T13:29:04.201Z,57.29
2022-09-21T13:31:42.081Z,57.77
2022-09-21T13:34:25.729Z,57.75
2022-09-21T13:37:19.347Z,58.78
2022-09-21T13:39:57.768Z,56.95
2022-09-21T13:42:30.167Z,55.30
2022-09-21T13:44:58.192Z,55.59
2022-09-21T13:47:33.847Z,56.15
2022-09-21T13:50:04.521Z,55.67
2022-09-21T13:52:40.353Z,53.07
2022-09-21T13:55:29.305Z,51.37
2022-09-21T13:58:02.217Z,51.50
2022-09-21T14:00:35.858Z,49.64
2022-09-21T14:03:20.638Z,49.54
2022-09-21T14:05:51.736Z,49.86
2022-09-21T14:08:27.096Z,50.25
2022-09-21T14:10:57.350Z,48.76
2022-09-21T14:13:39.030Z,51.26
2022-09-21T14:16:36.541Z,56.75
2022-09-21T14:19:26.869Z,56.23
2022-09-21T14:22:08.406Z,54.75
2022-09-21T14:24:46.767Z,54.56
2022-09-21T14:27:44.787Z,54.88
2022-09-21T14:30:28.052Z,54.60
2022-09-21T14:33:01.023Z,54.66
2022-09-21T14:35:33.947Z,56.20
2022-09-21T14:38:05.390Z,57.53
2022-09-21T14:40:42.323Z,57.08
2022-09-21T14:43:15.065Z,58.93
2022-09-21T14:46:18.623Z,58.90
2022-09-21T14:48:53.941Z,58.69
2022-09-21T14:51:36.495Z,58.68
2022-09-21T14:54:48.096Z,60.65
2022-09-21T14:57:35.163Z,59.40
2022-09-21T15:00:20.867Z,59.39
2022-09-21T15:02:52.981Z,56.57
2022-09-21T15:05:42.281Z,57.70
2022-09-21T15:09:14.915Z,58.79
2022-09-21T15:11:51.506Z,58.15
2022-09-21T15:18:00.680Z,57.10
2022-09-21T15:20:29.540Z,58.83
2022-09-21T15:22:57.593Z,57.71
2022-09-21T15:25:27.832Z,57.98
2022-09-21T15:27:55.098Z,60.17
2022-09-21T15:34:13.133Z,55.99
2022-09-21T15:36:41.985Z,55.45
2022-09-21T15:39:28.928Z,54.76
2022-09-21T15:42:17.738Z,55.38
2022-09-21T15:44:48.756Z,53.20
2022-09-21T15:47:22.024Z,53.71
2022-09-21T15:49:49.126Z,56.66
2022-09-21T15:52:34.711Z,58.98
2022-09-21T15:55:30.990Z,59.81
2022-09-21T15:57:58.596Z,61.64
2022-09-21T16:00:36.685Z,61.13
2022-09-21T16:03:21.363Z,61.80
2022-09-21T16:05:56.161Z,62.62
2022-09-21T16:08:34.492Z,60.67
2022-09-21T16:11:26.271Z,60.44
2022-09-21T16:14:37.843Z,61.74
2022-09-21T16:17:13.227Z,64.00
2022-09-21T16:19:44.646Z,65.57
2022-09-21T16:22:17.682Z,63.17
2022-09-21T16:24:50.379Z,62.47
2022-09-21T16:27:19.546Z,65.39
2022-09-21T16:29:48.510Z,64.58
2022-09-21T16:32:17.743Z,66.10
2022-09-21T16:34:45.812Z,67.10
2022-09-21T16:37:30.098Z,70.18
2022-09-21T16:39:58.493Z,70.13
2022-09-21T16:42:28.019Z,69.60
2022-09-21T16:44:55.495Z,70.21
2022-09-21T16:47:27.681Z,69.21
2022-09-21T16:49:57.801Z,71.99
2022-09-21T16:52:25.143Z,71.22
2022-09-21T16:54:51.731Z,72.50
2022-09-21T16:57:18.362Z,72.33
2022-09-21T16:59:44.830Z,74.67
2022-09-21T17:02:14.361Z,75.71
2022-09-21T17:04:41.753Z,76.10
2022-09-21T17:07:14.170Z,75.90
2022-09-21T17:09:46.373Z,77.29
2022-09-21T17:12:15.509Z,78.72
2022-09-21T17:14:46.422Z,79.49
2022-09-21T17:24:55.775Z,81.49
2022-09-21T17:27:25.406Z,81.08
2022-09-21T17:33:32.461Z,83.32
2022-09-21T17:35:59.127Z,86.34
2022-09-21T17:38:25.795Z,86.77
2022-09-21T17:40:53.585Z,86.99
2022-09-21T17:43:41.168Z,87.31
2022-09-21T17:46:24.912Z,87.46
2022-09-21T17:48:51.701Z,88.32
2022-09-21T17:51:38.395Z,89.10
2022-09-21T17:54:05.293Z,90.06
2022-09-21T17:56:47.879Z,90.94
2022-09-21T17:59:30.243Z,92.38
2022-09-21T18:01:59.636Z,93.46
2022-09-21T18:08:14.245Z,94.72
2022-09-21T18:10:48.871Z,95.07
2022-09-21T18:13:32.657Z,95.00
2022-09-21T18:16:35.052Z,96.17
2022-09-21T18:19:10.630Z,96.30
2022-09-21T18:21:40.743Z,96.68
2022-09-21T18:24:30.988Z,96.88
2022-09-21T18:26:58.744Z,97.97
2022-09-21T18:29:46.006Z,98.04
2022-09-21T18:32:15.310Z,98.24
2022-09-21T18:35:09.293Z,98.29
2022-09-21T18:37:51.578Z,98.21
2022-09-21T18:40:36.941Z,97.76
2022-09-21T18:43:26.110Z,97.90
2022-09-21T18:46:01.832Z,98.27
2022-09-21T18:49:04.093Z,98.46
2022-09-21T18:51:39.364Z,99.72
2022-09-21T18:54:08.970Z,99.39
2022-09-21T18:56:37.835Z,99.30
2022-09-21T18:59:07.238Z,99.69
2022-09-21T19:01:34.201Z,99.55
2022-09-21T19:04:01.523Z,99.73
2022-09-21T19:06:40.493Z,99.35
2022-09-21T19:09:21.955Z,100.00
2022-09-21T19:11:51.994Z,100.00
2022-09-21T19:14:43.553Z,100.00
2022-09-21T19:17:28.812Z,100.00
2022-09-21T19:20:19.752Z,100.00
2022-09-21T19:22:59.038Z,100.00
2022-09-21T19:25:47.254Z,100.00
2022-09-21T19:29:04.491Z,100.00
2022-09-21T19:31:31.215Z,100.00
2022-09-21T19:33:57.959Z,100.00
2022-09-21T19:36:24.622Z,100.00
2022-09-21T19:38:51.433Z,100.00
2022-09-21T19:41:42.098Z,100.00
2022-09-21T19:44:32.513Z,100.00
2022-09-21T19:47:19.135Z,100.00
2022-09-21T19:49:50.014Z,100.00
2022-09-21T19:52:19.152Z,100.00
2022-09-21T19:55:04.652Z,100.00
2022-09-21T19:57:50.066Z,100.00
2022-09-21T20:00:18.630Z,100.00
2022-09-21T20:03:15.307Z,100.00
2022-09-21T20:05:53.742Z,100.00
2022-09-21T20:08:29.878Z,100.00
2022-09-21T20:11:00.937Z,100.00
2022-09-21T20:13:45.328Z,100.00
2022-09-21T20:16:19.315Z,100.00
2022-09-21T20:18:54.719Z,100.00
2022-09-21T20:21:22.746Z,100.00
2022-09-21T20:23:58.678Z,100.00
2022-09-21T20:26:27.274Z,100.00
2022-09-21T20:28:54.827Z,100.00
2022-09-21T20:31:23.515Z,100.00
2022-09-21T20:33:49.990Z,100.00
2022-09-21T20:36:16.595Z,100.00
2022-09-21T20:38:44.024Z,100.00
2022-09-21T20:41:15.948Z,100.00
2022-09-21T20:43:43.156Z,100.00
2022-09-21T20:46:10.875Z,100.00
2022-09-21T20:48:38.369Z,100.00
2022-09-21T20:51:06.091Z,100.00
2022-09-21T20:53:34.089Z,100.00
2022-09-21T20:56:03.896Z,100.00
2022-09-21T20:58:30.731Z,100.00
2022-09-21T21:01:04.460Z,100.00
2022-09-21T21:03:31.115Z,100.00
2022-09-21T21:06:15.957Z,100.00
2022-09-21T21:08:43.151Z,100.00
2022-09-21T21:11:10.748Z,100.00
2022-09-21T21:13:37.631Z,100.00
2022-09-21T21:16:08.283Z,100.00
2022-09-21T21:18:41.665Z,100.00
2022-09-21T21:21:08.268Z,100.00
2022-09-21T21:23:54.635Z,100.00
2022-09-21T21:26:26.270Z,100.00
2022-09-21T21:28:59.943Z,100.00
2022-09-21T21:31:26.426Z,100.00
2022-09-21T21:33:53.095Z,100.00
2022-09-21T21:36:19.534Z,100.00
2022-09-21T21:38:45.942Z,100.00
2022-09-21T21:41:12.941Z,100.00
2022-09-21T21:43:40.727Z,100.00
2022-09-21T21:46:11.249Z,100.00
2022-09-21T21:48:39.034Z,100.00
2022-09-21T21:51:06.812Z,100.00
2022-09-21T21:53:38.545Z,100.00
2022-09-21T21:56:13.170Z,100.00
2022-09-21T21:58:39.674Z,100.00
2022-09-21T22:01:13.587Z,100.00
2022-09-21T22:03:41.448Z,100.00
2022-09-21T22:06:09.936Z,100.00
2022-09-21T22:08:37.951Z,100.00
2022-09-21T22:11:05.314Z,100.00
2022-09-21T22:13:36.765Z,100.00
2022-09-21T22:16:08.533Z,100.00
2022-09-21T22:18:36.059Z,100.00
2022-09-21T22:21:08.001Z,100.00
2022-09-21T22:23:35.210Z,100.00
2022-09-21T22:26:16.355Z,100.00
2022-09-21T22:28:45.745Z,100.00
2022-09-21T22:31:18.423Z,100.00
2022-09-21T22:33:45.865Z,100.00
2022-09-21T22:36:20.846Z,100.00
2022-09-21T22:38:47.892Z,100.00
2022-09-21T22:41:19.971Z,100.00
2022-09-21T22:43:48.122Z,100.00
2022-09-21T22:46:18.275Z,100.00
2022-09-21T22:48:48.175Z,100.00
2022-09-21T22:51:16.701Z,100.00
2022-09-21T22:53:43.431Z,100.00
2022-09-21T22:56:12.631Z,100.00
2022-09-21T22:58:42.693Z,100.00
2022-09-21T23:01:14.025Z,100.00
2022-09-21T23:03:42.071Z,100.00
2022-09-21T23:06:11.899Z,100.00
2022-09-21T23:08:38.984Z,100.00
2022-09-21T23:11:12.174Z,100.00
2022-09-21T23:13:38.610Z,100.00
2022-09-21T23:16:07.096Z,100.00
2022-09-21T23:18:34.781Z,100.00
2022-09-21T23:21:07.309Z,100.00
2022-09-21T23:23:34.510Z,100.00
2022-09-21T23:26:08.943Z,100.00
2022-09-21T23:28:36.469Z,100.00
2022-09-21T23:31:05.508Z,100.00
2022-09-21T23:33:40.828Z,100.00
2022-09-21T23:36:09.123Z,100.00
2022-09-21T23:38:36.709Z,100.00
2022-09-21T23:41:13.860Z,100.00
2022-09-21T23:43:41.957Z,100.00
2022-09-21T23:46:11.648Z,100.00
2022-09-21T23:48:38.821Z,100.00
2022-09-21T23:51:06.168Z,100.00
2022-09-21T23:53:33.178Z,100.00
2022-09-21T23:55:59.653Z,100.00
2022-09-21T23:58:27.226Z,100.00
